Hocking — AEPB — position and weather

sailwx.info

Track history (hours):
 
Tides and Currents Weather Stations Pressure Air Temp Water Temp Dewpoint Dewpoint Depression Visibility Wind Speed Wind Dir Waves Ship Positions

Hocking

Last reported at 2017-Dec-11 17:00 UTC. Time now 2017-Dec-13 07:25 UTC.
Position N 40°44' W 074°01'.

Length 21 m; draft 1.8 m.

Type: Other ship. MMSI: 366999414.

Date/timePositionNaut miles runAvg speedWind from/ knotsBaromVisibWave heightAir tempDewpointWater temp
2017-Dec-11 17:00N 40°44' W 074°01'0 0.6
2017-Dec-11 16:30N 40°44' W 074°02'0 0.9
2017-Dec-11 16:00N 40°44' W 074°01'2 4.0
2017-Dec-11 15:31N 40°42' W 074°02'  
2017-Dec-07 19:50N 40°40' W 074°04'3 9.1
2017-Dec-07 19:30N 40°39' W 074°07'2 4.3
2017-Dec-07 19:00N 40°39' W 074°05'3 6.9
2017-Dec-07 18:30N 40°42' W 074°02'4 7.6
2017-Dec-07 18:00N 40°45' W 074°01'1 2.8
2017-Dec-07 17:30N 40°44' W 074°02'0 0.6
2017-Dec-07 17:00N 40°44' W 074°01'3 5.0
2017-Dec-07 16:30N 40°43' W 073°58'4 8.1
2017-Dec-07 15:58N 40°47' W 073°55'6 3.2
2017-Dec-07 13:58N 40°48' W 073°47'510.8
2017-Dec-07 13:30N 40°48' W 073°54'611.3
2017-Dec-07 13:00N 40°43' W 073°58'510.1
2017-Dec-07 12:30N 40°41' W 074°04'  
Track history (hours):
 
Tides and Currents Weather Stations Pressure Air Temp Water Temp Dewpoint Dewpoint Depression Visibility Wind Speed Wind Dir Waves Ship Positions

Hocking

Last reported at 2017-Dec-11 17:00 UTC. Time now 2017-Dec-13 07:25 UTC.
Position N 40°44' W 074°01'.

Length 21 m; draft 1.8 m.

Type: Other ship. MMSI: 366999414.

Date/timePositionNaut miles runAvg speedWind from/ knotsBaromVisibWave heightAir tempDewpointWater temp
2017-Dec-11 17:00N 40°44' W 074°01'0 0.6
2017-Dec-11 16:30N 40°44' W 074°02'0 0.9
2017-Dec-11 16:00N 40°44' W 074°01'2 4.0
2017-Dec-11 15:31N 40°42' W 074°02'  
2017-Dec-07 19:50N 40°40' W 074°04'3 9.1
2017-Dec-07 19:30N 40°39' W 074°07'2 4.3
2017-Dec-07 19:00N 40°39' W 074°05'3 6.9
2017-Dec-07 18:30N 40°42' W 074°02'4 7.6
2017-Dec-07 18:00N 40°45' W 074°01'1 2.8
2017-Dec-07 17:30N 40°44' W 074°02'0 0.6
2017-Dec-07 17:00N 40°44' W 074°01'3 5.0
2017-Dec-07 16:30N 40°43' W 073°58'4 8.1
2017-Dec-07 15:58N 40°47' W 073°55'6 3.2
2017-Dec-07 13:58N 40°48' W 073°47'510.8
2017-Dec-07 13:30N 40°48' W 073°54'611.3
2017-Dec-07 13:00N 40°43' W 073°58'510.1
2017-Dec-07 12:30N 40°41' W 074°04'  

Dump ship's entire track history